Destinations Bern Belp Airport

Bern Belp Airport (LSZB / BRN)

Flights to Bern Belp Airport

Flight number From ETE Dispatch
SPY-2266 EGFF Cardiff International Airport 01:55

Flights from Bern Belp Airport

Flight number To ETE Dispatch
SPY-2267 EGFF Cardiff International Airport 01:55
About

Bern Belp Airport facts

Bern Belp Airport is located in Bern at an elevation of 510.2 meters or 1674 feet.

Currently, Speedy Airlines serves 2 flights to and from Bern Belp Airport.

Detailed airport info

Route map

Weather

Current weather

METAR

METAR

Metar data retrieved Sunday, 21 July 2024 at 18:25 UTC

LSZB 211750Z 29004KT 9999 FEW075 SCT085 BKN095 24/15 Q1013
Wind Temperature
4 kt 24c